CheckWX is a tool to help pilots better visualize weather data.  It is not intended as a substitute for an official pre-flight weather briefing.

21:29:59 UTC

U42 METAR
South Valley Regional Airport
Salt Lake City, Utah, USA
Current

15 mins ago

KU42 202115Z AUTO 33009KT 10SM SCT050 SCT065 07/M01 A3015 RMK AO1 T00661006
Observed
Oct-20 @ 21:15 UTC
Wind
  • 330° at 9 KTS
Visibility
10 SM
Flight Rules
VFR
Cloud Levels
  • Scattered at 5,000' AGL
  • Scattered at 6,500' AGL
Temperature
C / 45°F
Dewpoint
-1°C / 30°F
Humidity
57%
Altimeter
30.15" Hg
Pressure
1021.02 hPa
Previous

35 mins ago

KU42 202055Z AUTO 01006KT 10SM SCT050 SCT060 07/00 A3015 RMK AO1 T00741004
Observed
Oct-20 @ 20:55 UTC
Wind
  • 010° at 6 KTS
Visibility
10 SM
Flight Rules
VFR
Cloud Levels
  • Scattered at 5,000' AGL
  • Scattered at 6,000' AGL
Temperature
C / 45°F
Dewpoint
-0°C / 32°F
Humidity
61%
Altimeter
30.15" Hg
Pressure
1021.02 hPa
Previous

55 mins ago

KU42 202035Z AUTO 04004KT 10SM SCT048 SCT050 07/00 A3015 RMK AO1 T00731004
Observed
Oct-20 @ 20:35 UTC
Wind
  • 040° at 4 KTS
Visibility
10 SM
Flight Rules
VFR
Cloud Levels
  • Scattered at 4,800' AGL
  • Scattered at 5,000' AGL
Temperature
C / 45°F
Dewpoint
-0°C / 32°F
Humidity
61%
Altimeter
30.15" Hg
Pressure
1021.02 hPa